sensor_id;sensor_type;location;lat;lon;timestamp;pressure;altitude;pressure_sealevel;temperature;humidity
52719;BME280;38616;42.140;24.760;2022-08-25T00:01:36;99199.75;;;23.73;73.24
52719;BME280;38616;42.140;24.760;2022-08-25T00:04:06;99209.38;;;23.87;72.78
52719;BME280;38616;42.140;24.760;2022-08-25T00:06:32;99194.28;;;23.81;73.04
52719;BME280;38616;42.140;24.760;2022-08-25T00:08:57;99201.25;;;24.01;71.99
52719;BME280;38616;42.140;24.760;2022-08-25T00:11:26;99207.84;;;23.93;72.19
52719;BME280;38616;42.140;24.760;2022-08-25T00:13:56;99213.81;;;23.95;72.05
52719;BME280;38616;42.140;24.760;2022-08-25T00:16:23;99221.72;;;23.93;72.52
52719;BME280;38616;42.140;24.760;2022-08-25T00:18:53;99226.38;;;23.82;73.18
52719;BME280;38616;42.140;24.760;2022-08-25T00:21:20;99214.94;;;23.87;72.35
52719;BME280;38616;42.140;24.760;2022-08-25T00:23:46;99210.44;;;24.09;71.23
52719;BME280;38616;42.140;24.760;2022-08-25T00:26:12;99213.59;;;24.08;70.63
52719;BME280;38616;42.140;24.760;2022-08-25T00:28:40;99202.66;;;24.26;69.85
52719;BME280;38616;42.140;24.760;2022-08-25T00:31:10;99198.41;;;23.98;69.83
52719;BME280;38616;42.140;24.760;2022-08-25T00:33:36;99205.91;;;23.94;69.82
52719;BME280;38616;42.140;24.760;2022-08-25T00:36:01;99191.22;;;23.93;70.26
52719;BME280;38616;42.140;24.760;2022-08-25T00:38:27;99196.88;;;24.00;70.83
52719;BME280;38616;42.140;24.760;2022-08-25T00:40:53;99198.47;;;24.01;71.13
52719;BME280;38616;42.140;24.760;2022-08-25T00:43:42;99196.81;;;23.97;71.12
52719;BME280;38616;42.140;24.760;2022-08-25T00:46:11;99195.81;;;23.78;70.99
52719;BME280;38616;42.140;24.760;2022-08-25T00:48:38;99195.72;;;23.67;71.28
52719;BME280;38616;42.140;24.760;2022-08-25T00:51:07;99184.28;;;23.38;71.76
52719;BME280;38616;42.140;24.760;2022-08-25T00:53:34;99174.06;;;23.42;72.73
52719;BME280;38616;42.140;24.760;2022-08-25T00:56:00;99171.47;;;23.60;71.43
52719;BME280;38616;42.140;24.760;2022-08-25T00:58:27;99172.63;;;23.56;71.21
52719;BME280;38616;42.140;24.760;2022-08-25T01:00:55;99169.44;;;23.54;71.49
52719;BME280;38616;42.140;24.760;2022-08-25T01:03:24;99162.53;;;23.37;70.49
52719;BME280;38616;42.140;24.760;2022-08-25T01:05:50;99154.22;;;23.40;71.10
52719;BME280;38616;42.140;24.760;2022-08-25T01:08:17;99162.94;;;23.39;70.63
52719;BME280;38616;42.140;24.760;2022-08-25T01:10:45;99169.25;;;23.39;71.03
52719;BME280;38616;42.140;24.760;2022-08-25T01:13:48;99152.16;;;23.68;70.48
52719;BME280;38616;42.140;24.760;2022-08-25T01:16:14;99146.94;;;23.63;70.56
52719;BME280;38616;42.140;24.760;2022-08-25T01:18:51;99157.66;;;23.64;69.97
52719;BME280;38616;42.140;24.760;2022-08-25T01:21:19;99156.00;;;23.56;70.16
52719;BME280;38616;42.140;24.760;2022-08-25T01:23:45;99155.38;;;23.73;69.22
52719;BME280;38616;42.140;24.760;2022-08-25T01:26:12;99158.09;;;23.66;69.36
52719;BME280;38616;42.140;24.760;2022-08-25T01:28:41;99154.47;;;23.62;69.83
52719;BME280;38616;42.140;24.760;2022-08-25T01:31:27;99148.44;;;23.53;70.21
52719;BME280;38616;42.140;24.760;2022-08-25T01:33:53;99150.59;;;23.70;69.53
52719;BME280;38616;42.140;24.760;2022-08-25T01:36:20;99154.75;;;23.53;69.69
52719;BME280;38616;42.140;24.760;2022-08-25T01:38:46;99153.78;;;23.72;69.66
52719;BME280;38616;42.140;24.760;2022-08-25T01:41:16;99149.38;;;23.68;69.61
52719;BME280;38616;42.140;24.760;2022-08-25T01:43:45;99162.81;;;23.66;68.56
52719;BME280;38616;42.140;24.760;2022-08-25T01:46:11;99159.53;;;23.53;70.02
52719;BME280;38616;42.140;24.760;2022-08-25T01:48:37;99153.66;;;23.61;69.31
52719;BME280;38616;42.140;24.760;2022-08-25T01:51:02;99160.22;;;23.15;70.78
52719;BME280;38616;42.140;24.760;2022-08-25T01:53:29;99152.53;;;23.28;71.01
52719;BME280;38616;42.140;24.760;2022-08-25T01:55:55;99155.63;;;23.23;71.46
52719;BME280;38616;42.140;24.760;2022-08-25T01:58:34;99154.56;;;23.05;72.13
52719;BME280;38616;42.140;24.760;2022-08-25T02:01:05;99149.66;;;22.91;73.14
52719;BME280;38616;42.140;24.760;2022-08-25T02:03:31;99154.25;;;23.13;71.99
52719;BME280;38616;42.140;24.760;2022-08-25T02:05:58;99148.50;;;22.65;73.42
52719;BME280;38616;42.140;24.760;2022-08-25T02:08:24;99143.94;;;22.53;74.42
52719;BME280;38616;42.140;24.760;2022-08-25T02:10:51;99136.28;;;22.69;74.84
52719;BME280;38616;42.140;24.760;2022-08-25T02:13:18;99137.19;;;22.77;72.94
52719;BME280;38616;42.140;24.760;2022-08-25T02:15:47;99129.03;;;22.34;74.78
52719;BME280;38616;42.140;24.760;2022-08-25T02:18:14;99123.91;;;22.60;73.57
52719;BME280;38616;42.140;24.760;2022-08-25T02:20:40;99120.91;;;22.72;72.49
52719;BME280;38616;42.140;24.760;2022-08-25T02:23:06;99119.53;;;22.58;72.64
52719;BME280;38616;42.140;24.760;2022-08-25T02:25:31;99120.59;;;22.50;73.26
52719;BME280;38616;42.140;24.760;2022-08-25T02:27:58;99126.00;;;22.43;73.44
52719;BME280;38616;42.140;24.760;2022-08-25T02:30:24;99118.31;;;22.33;74.20
52719;BME280;38616;42.140;24.760;2022-08-25T02:32:49;99117.97;;;22.34;73.31
52719;BME280;38616;42.140;24.760;2022-08-25T02:35:15;99123.06;;;22.09;74.09
52719;BME280;38616;42.140;24.760;2022-08-25T02:37:41;99128.44;;;21.98;75.06
52719;BME280;38616;42.140;24.760;2022-08-25T02:40:07;99117.66;;;22.16;74.45
52719;BME280;38616;42.140;24.760;2022-08-25T02:42:33;99120.00;;;22.14;74.23
52719;BME280;38616;42.140;24.760;2022-08-25T02:44:58;99117.63;;;22.12;73.95
52719;BME280;38616;42.140;24.760;2022-08-25T02:47:24;99110.84;;;22.10;73.84
52719;BME280;38616;42.140;24.760;2022-08-25T02:49:50;99110.44;;;22.08;73.48
52719;BME280;38616;42.140;24.760;2022-08-25T02:52:17;99102.03;;;22.27;72.99
52719;BME280;38616;42.140;24.760;2022-08-25T02:54:42;99091.34;;;22.53;70.26
52719;BME280;38616;42.140;24.760;2022-08-25T02:57:08;99091.41;;;22.29;71.15
52719;BME280;38616;42.140;24.760;2022-08-25T02:59:36;99087.00;;;22.25;71.79
52719;BME280;38616;42.140;24.760;2022-08-25T03:02:03;99092.47;;;22.45;71.01
52719;BME280;38616;42.140;24.760;2022-08-25T03:04:29;99083.06;;;22.53;70.31
52719;BME280;38616;42.140;24.760;2022-08-25T03:06:56;99091.88;;;22.62;69.98
52719;BME280;38616;42.140;24.760;2022-08-25T03:09:21;99088.00;;;22.40;70.88
52719;BME280;38616;42.140;24.760;2022-08-25T03:11:47;99074.69;;;22.46;70.56
52719;BME280;38616;42.140;24.760;2022-08-25T03:14:13;99079.50;;;22.52;70.28
52719;BME280;38616;42.140;24.760;2022-08-25T03:16:39;99073.13;;;22.48;70.67
52719;BME280;38616;42.140;24.760;2022-08-25T03:19:07;99083.47;;;22.55;70.04
52719;BME280;38616;42.140;24.760;2022-08-25T03:21:32;99079.00;;;22.73;69.72
52719;BME280;38616;42.140;24.760;2022-08-25T03:23:58;99075.78;;;22.68;69.57
52719;BME280;38616;42.140;24.760;2022-08-25T03:26:24;99075.66;;;22.61;69.77
52719;BME280;38616;42.140;24.760;2022-08-25T03:29:08;99079.66;;;22.63;69.52
52719;BME280;38616;42.140;24.760;2022-08-25T03:31:35;99091.72;;;22.78;69.55
52719;BME280;38616;42.140;24.760;2022-08-25T03:34:01;99090.34;;;22.65;70.38
52719;BME280;38616;42.140;24.760;2022-08-25T03:36:26;99090.16;;;22.81;69.09
52719;BME280;38616;42.140;24.760;2022-08-25T03:38:52;99099.50;;;22.99;68.82
52719;BME280;38616;42.140;24.760;2022-08-25T03:41:26;99112.81;;;23.21;68.12
52719;BME280;38616;42.140;24.760;2022-08-25T03:43:53;99105.25;;;23.17;68.35
52719;BME280;38616;42.140;24.760;2022-08-25T03:46:33;99105.56;;;23.09;68.81
52719;BME280;38616;42.140;24.760;2022-08-25T03:49:04;99107.00;;;22.99;68.63
52719;BME280;38616;42.140;24.760;2022-08-25T03:51:42;99099.88;;;22.98;69.15
52719;BME280;38616;42.140;24.760;2022-08-25T03:54:09;99098.63;;;22.92;69.60
52719;BME280;38616;42.140;24.760;2022-08-25T03:56:35;99101.00;;;22.93;69.78
52719;BME280;38616;42.140;24.760;2022-08-25T03:59:02;99095.88;;;22.65;70.30
52719;BME280;38616;42.140;24.760;2022-08-25T04:01:27;99106.19;;;22.41;71.46
52719;BME280;38616;42.140;24.760;2022-08-25T04:03:53;99109.06;;;22.21;72.26
52719;BME280;38616;42.140;24.760;2022-08-25T04:06:20;99121.41;;;22.27;72.70
52719;BME280;38616;42.140;24.760;2022-08-25T04:08:46;99114.22;;;22.46;72.03
52719;BME280;38616;42.140;24.760;2022-08-25T04:11:17;99117.28;;;22.68;70.88
52719;BME280;38616;42.140;24.760;2022-08-25T04:13:44;99112.69;;;22.49;71.47
52719;BME280;38616;42.140;24.760;2022-08-25T04:16:16;99111.31;;;22.66;70.98
52719;BME280;38616;42.140;24.760;2022-08-25T04:18:43;99123.59;;;22.95;69.76
52719;BME280;38616;42.140;24.760;2022-08-25T04:21:10;99123.19;;;22.97;69.26
52719;BME280;38616;42.140;24.760;2022-08-25T04:23:38;99117.81;;;23.08;68.84
52719;BME280;38616;42.140;24.760;2022-08-25T04:26:32;99112.72;;;22.52;70.29
52719;BME280;38616;42.140;24.760;2022-08-25T04:28:59;99110.00;;;22.56;70.13
52719;BME280;38616;42.140;24.760;2022-08-25T04:31:29;99111.09;;;22.78;69.45
52719;BME280;38616;42.140;24.760;2022-08-25T04:33:56;99111.13;;;23.12;68.23
52719;BME280;38616;42.140;24.760;2022-08-25T04:36:22;99108.44;;;23.20;68.13
52719;BME280;38616;42.140;24.760;2022-08-25T04:38:49;99101.22;;;23.11;68.15
52719;BME280;38616;42.140;24.760;2022-08-25T04:41:18;99105.16;;;23.10;68.27
52719;BME280;38616;42.140;24.760;2022-08-25T04:43:44;99105.47;;;22.71;68.31
52719;BME280;38616;42.140;24.760;2022-08-25T04:46:23;99109.00;;;23.02;68.02
52719;BME280;38616;42.140;24.760;2022-08-25T04:48:50;99113.31;;;23.26;67.35
52719;BME280;38616;42.140;24.760;2022-08-25T04:51:21;99105.88;;;23.34;66.51
52719;BME280;38616;42.140;24.760;2022-08-25T04:56:32;99094.72;;;22.96;67.08
52719;BME280;38616;42.140;24.760;2022-08-25T04:59:02;99092.13;;;23.11;67.17
52719;BME280;38616;42.140;24.760;2022-08-25T05:01:28;99098.78;;;23.06;66.84
52719;BME280;38616;42.140;24.760;2022-08-25T05:03:57;99094.00;;;23.03;66.83
52719;BME280;38616;42.140;24.760;2022-08-25T05:06:24;99086.44;;;23.00;66.11
52719;BME280;38616;42.140;24.760;2022-08-25T05:08:50;99089.63;;;23.02;66.84
52719;BME280;38616;42.140;24.760;2022-08-25T05:11:17;99091.44;;;23.21;65.88
52719;BME280;38616;42.140;24.760;2022-08-25T05:13:45;99086.03;;;23.32;65.45
52719;BME280;38616;42.140;24.760;2022-08-25T05:16:10;99077.97;;;23.57;64.29
52719;BME280;38616;42.140;24.760;2022-08-25T05:18:37;99091.31;;;23.86;63.17
52719;BME280;38616;42.140;24.760;2022-08-25T05:21:07;99087.16;;;24.07;62.17
52719;BME280;38616;42.140;24.760;2022-08-25T05:23:34;99084.94;;;24.27;61.46
52719;BME280;38616;42.140;24.760;2022-08-25T05:26:11;99082.53;;;24.25;61.47
52719;BME280;38616;42.140;24.760;2022-08-25T05:28:38;99086.19;;;24.40;62.15
52719;BME280;38616;42.140;24.760;2022-08-25T05:31:09;99089.38;;;24.42;61.88
52719;BME280;38616;42.140;24.760;2022-08-25T05:33:37;99089.38;;;24.39;61.88
52719;BME280;38616;42.140;24.760;2022-08-25T05:36:04;99086.59;;;24.39;61.80
52719;BME280;38616;42.140;24.760;2022-08-25T05:38:30;99091.09;;;24.65;60.78
52719;BME280;38616;42.140;24.760;2022-08-25T05:41:04;99091.91;;;24.69;60.82
52719;BME280;38616;42.140;24.760;2022-08-25T05:43:30;99089.97;;;24.73;59.48
52719;BME280;38616;42.140;24.760;2022-08-25T05:45:56;99083.94;;;24.64;59.70
52719;BME280;38616;42.140;24.760;2022-08-25T05:48:23;99086.31;;;24.58;60.11
52719;BME280;38616;42.140;24.760;2022-08-25T05:51:00;99066.06;;;24.54;59.78
52719;BME280;38616;42.140;24.760;2022-08-25T05:53:27;99058.66;;;24.80;59.08
52719;BME280;38616;42.140;24.760;2022-08-25T05:55:54;99087.22;;;24.73;59.37
52719;BME280;38616;42.140;24.760;2022-08-25T05:58:20;99073.00;;;24.89;59.06
52719;BME280;38616;42.140;24.760;2022-08-25T06:00:46;99061.06;;;24.82;59.07
52719;BME280;38616;42.140;24.760;2022-08-25T06:03:12;99068.25;;;24.93;59.60
52719;BME280;38616;42.140;24.760;2022-08-25T06:05:38;99066.72;;;25.11;59.12
52719;BME280;38616;42.140;24.760;2022-08-25T06:08:03;99064.78;;;25.36;58.42
52719;BME280;38616;42.140;24.760;2022-08-25T06:10:29;99067.56;;;25.36;58.06
52719;BME280;38616;42.140;24.760;2022-08-25T06:12:55;99057.63;;;25.25;58.15
52719;BME280;38616;42.140;24.760;2022-08-25T06:15:22;99059.66;;;25.35;58.25
52719;BME280;38616;42.140;24.760;2022-08-25T06:17:49;99057.31;;;25.48;58.14
52719;BME280;38616;42.140;24.760;2022-08-25T06:20:20;99058.50;;;25.54;57.74
52719;BME280;38616;42.140;24.760;2022-08-25T06:22:47;99062.88;;;25.62;58.06
52719;BME280;38616;42.140;24.760;2022-08-25T06:25:16;99066.84;;;25.87;57.62
52719;BME280;38616;42.140;24.760;2022-08-25T06:27:42;99070.03;;;25.67;57.51
52719;BME280;38616;42.140;24.760;2022-08-25T06:30:12;99052.16;;;25.86;57.48
52719;BME280;38616;42.140;24.760;2022-08-25T06:32:40;99054.94;;;25.90;57.18
52719;BME280;38616;42.140;24.760;2022-08-25T06:35:09;99049.38;;;26.04;56.85
52719;BME280;38616;42.140;24.760;2022-08-25T06:37:35;99049.38;;;26.04;56.84
52719;BME280;38616;42.140;24.760;2022-08-25T06:40:02;99058.13;;;26.14;56.45
52719;BME280;38616;42.140;24.760;2022-08-25T06:42:28;99052.16;;;26.15;56.45
52719;BME280;38616;42.140;24.760;2022-08-25T06:44:54;99055.75;;;26.23;56.82
52719;BME280;38616;42.140;24.760;2022-08-25T06:47:19;99053.34;;;25.81;57.29
52719;BME280;38616;42.140;24.760;2022-08-25T06:49:45;99048.56;;;26.18;56.62
52719;BME280;38616;42.140;24.760;2022-08-25T06:52:11;99049.75;;;26.24;56.50
52719;BME280;38616;42.140;24.760;2022-08-25T06:54:37;99047.78;;;26.25;56.21
52719;BME280;38616;42.140;24.760;2022-08-25T06:57:04;99047.00;;;26.14;56.33
52719;BME280;38616;42.140;24.760;2022-08-25T06:59:32;99043.81;;;26.01;56.33
52719;BME280;38616;42.140;24.760;2022-08-25T07:01:58;99048.56;;;26.29;56.20
52719;BME280;38616;42.140;24.760;2022-08-25T07:04:24;99046.53;;;26.44;56.09
52719;BME280;38616;42.140;24.760;2022-08-25T07:06:49;99041.75;;;26.48;55.14
52719;BME280;38616;42.140;24.760;2022-08-25T07:09:15;99054.88;;;26.44;56.00
52719;BME280;38616;42.140;24.760;2022-08-25T07:11:42;99036.56;;;26.54;55.70
52719;BME280;38616;42.140;24.760;2022-08-25T07:14:09;99037.34;;;26.62;55.41
52719;BME280;38616;42.140;24.760;2022-08-25T07:16:37;99036.94;;;26.60;55.42
52719;BME280;38616;42.140;24.760;2022-08-25T07:19:03;99031.78;;;26.62;55.48
52719;BME280;38616;42.140;24.760;2022-08-25T07:21:31;99018.19;;;26.67;55.87
52719;BME280;38616;42.140;24.760;2022-08-25T07:23:57;99026.53;;;26.82;55.82
52719;BME280;38616;42.140;24.760;2022-08-25T07:26:26;99028.16;;;26.68;55.76
52719;BME280;38616;42.140;24.760;2022-08-25T07:28:53;99021.38;;;26.69;55.84
52719;BME280;38616;42.140;24.760;2022-08-25T07:31:18;99022.47;;;26.97;55.54
52719;BME280;38616;42.140;24.760;2022-08-25T07:33:44;99024.34;;;27.19;53.79
52719;BME280;38616;42.140;24.760;2022-08-25T07:36:29;99032.28;;;27.24;53.91
52719;BME280;38616;42.140;24.760;2022-08-25T07:38:56;99023.88;;;27.31;53.70
52719;BME280;38616;42.140;24.760;2022-08-25T07:41:22;99028.25;;;27.36;53.21
52719;BME280;38616;42.140;24.760;2022-08-25T07:43:47;99033.97;;;27.03;54.23
52719;BME280;38616;42.140;24.760;2022-08-25T07:46:13;99032.28;;;27.24;53.30
52719;BME280;38616;42.140;24.760;2022-08-25T07:48:39;99030.56;;;27.41;53.03
52719;BME280;38616;42.140;24.760;2022-08-25T07:51:09;99031.50;;;27.23;53.52
52719;BME280;38616;42.140;24.760;2022-08-25T07:53:35;99035.03;;;27.31;53.09
52719;BME280;38616;42.140;24.760;2022-08-25T07:56:01;99039.00;;;27.34;53.45
52719;BME280;38616;42.140;24.760;2022-08-25T07:58:26;99026.31;;;27.22;52.94
52719;BME280;38616;42.140;24.760;2022-08-25T08:00:52;99026.81;;;27.02;53.85
52719;BME280;38616;42.140;24.760;2022-08-25T08:03:18;99040.53;;;27.42;52.95
52719;BME280;38616;42.140;24.760;2022-08-25T08:05:45;99036.03;;;27.63;52.42
52719;BME280;38616;42.140;24.760;2022-08-25T08:08:10;99030.50;;;27.55;52.19
52719;BME280;38616;42.140;24.760;2022-08-25T08:10:39;99034.13;;;27.45;52.13
52719;BME280;38616;42.140;24.760;2022-08-25T08:13:06;99035.09;;;27.80;52.68
52719;BME280;38616;42.140;24.760;2022-08-25T08:15:33;99033.78;;;27.92;52.19
52719;BME280;38616;42.140;24.760;2022-08-25T08:17:59;99042.78;;;28.11;51.99
52719;BME280;38616;42.140;24.760;2022-08-25T08:20:25;99038.69;;;27.77;50.00
52719;BME280;38616;42.140;24.760;2022-08-25T08:22:51;99043.06;;;27.78;49.36
52719;BME280;38616;42.140;24.760;2022-08-25T08:25:16;99030.53;;;27.52;49.61
52719;BME280;38616;42.140;24.760;2022-08-25T08:27:42;99039.06;;;27.79;49.52
52719;BME280;38616;42.140;24.760;2022-08-25T08:30:10;99043.88;;;28.24;49.82
52719;BME280;38616;42.140;24.760;2022-08-25T08:32:36;99038.00;;;28.53;48.39
52719;BME280;38616;42.140;24.760;2022-08-25T08:35:01;99050.72;;;28.20;48.74
52719;BME280;38616;42.140;24.760;2022-08-25T08:37:27;99038.63;;;28.30;48.92
52719;BME280;38616;42.140;24.760;2022-08-25T08:39:52;99038.22;;;28.66;47.51
52719;BME280;38616;42.140;24.760;2022-08-25T08:45:26;99038.91;;;28.78;46.78
52719;BME280;38616;42.140;24.760;2022-08-25T08:48:09;99020.09;;;28.82;46.33
52719;BME280;38616;42.140;24.760;2022-08-25T08:50:53;99029.03;;;29.00;46.61
52719;BME280;38616;42.140;24.760;2022-08-25T08:53:44;99029.78;;;29.04;46.07
52719;BME280;38616;42.140;24.760;2022-08-25T08:56:22;99031.19;;;28.89;46.60
52719;BME280;38616;42.140;24.760;2022-08-25T09:01:51;99040.56;;;28.37;47.60
52719;BME280;38616;42.140;24.760;2022-08-25T09:07:02;99032.06;;;28.82;46.99
52719;BME280;38616;42.140;24.760;2022-08-25T09:09:33;99032.75;;;28.21;47.08
52719;BME280;38616;42.140;24.760;2022-08-25T09:12:09;99032.09;;;28.44;46.49
52719;BME280;38616;42.140;24.760;2022-08-25T09:15:03;99035.59;;;28.86;46.61
52719;BME280;38616;42.140;24.760;2022-08-25T09:23:20;99023.19;;;29.18;44.43
52719;BME280;38616;42.140;24.760;2022-08-25T09:28:31;99027.59;;;28.88;44.57
52719;BME280;38616;42.140;24.760;2022-08-25T09:31:35;99026.97;;;28.73;45.14
52719;BME280;38616;42.140;24.760;2022-08-25T09:33:55;99012.22;;;29.04;44.93
52719;BME280;38616;42.140;24.760;2022-08-25T09:36:22;99012.56;;;28.75;44.99
52719;BME280;38616;42.140;24.760;2022-08-25T09:38:47;99001.38;;;29.10;44.62
52719;BME280;38616;42.140;24.760;2022-08-25T09:41:16;98994.31;;;29.25;44.07
52719;BME280;38616;42.140;24.760;2022-08-25T09:43:51;99006.75;;;29.52;42.57
52719;BME280;38616;42.140;24.760;2022-08-25T09:46:26;98988.25;;;29.30;41.96
52719;BME280;38616;42.140;24.760;2022-08-25T09:48:54;98987.59;;;28.95;41.31
52719;BME280;38616;42.140;24.760;2022-08-25T09:51:27;99003.81;;;28.77;40.66
52719;BME280;38616;42.140;24.760;2022-08-25T09:53:54;98988.22;;;29.07;40.37
52719;BME280;38616;42.140;24.760;2022-08-25T09:56:29;98985.47;;;29.03;40.64
52719;BME280;38616;42.140;24.760;2022-08-25T10:01:51;98969.28;;;29.45;41.60
52719;BME280;38616;42.140;24.760;2022-08-25T10:04:43;98974.44;;;29.71;41.33
52719;BME280;38616;42.140;24.760;2022-08-25T10:07:29;98972.38;;;29.99;40.93
52719;BME280;38616;42.140;24.760;2022-08-25T10:09:59;98955.59;;;29.99;40.83
52719;BME280;38616;42.140;24.760;2022-08-25T10:15:15;98959.03;;;29.83;39.74
52719;BME280;38616;42.140;24.760;2022-08-25T10:17:41;98949.28;;;29.91;40.01
52719;BME280;38616;42.140;24.760;2022-08-25T10:22:36;98953.63;;;29.96;39.74
52719;BME280;38616;42.140;24.760;2022-08-25T10:25:10;98951.75;;;30.09;38.98
52719;BME280;38616;42.140;24.760;2022-08-25T10:28:09;98949.59;;;29.53;40.29
52719;BME280;38616;42.140;24.760;2022-08-25T10:33:41;98946.38;;;29.98;40.05
52719;BME280;38616;42.140;24.760;2022-08-25T10:36:30;98938.69;;;29.58;39.86
52719;BME280;38616;42.140;24.760;2022-08-25T10:39:00;98939.81;;;29.85;40.15
52719;BME280;38616;42.140;24.760;2022-08-25T10:44:38;98938.66;;;29.82;38.92
52719;BME280;38616;42.140;24.760;2022-08-25T10:50:25;98930.66;;;29.60;38.88
52719;BME280;38616;42.140;24.760;2022-08-25T10:54:05;98936.59;;;29.39;39.36
52719;BME280;38616;42.140;24.760;2022-08-25T10:56:25;98921.53;;;29.56;39.39
52719;BME280;38616;42.140;24.760;2022-08-25T11:04:35;98920.81;;;30.16;38.97
52719;BME280;38616;42.140;24.760;2022-08-25T11:07:08;98914.78;;;29.98;38.51
52719;BME280;38616;42.140;24.760;2022-08-25T11:09:44;98917.75;;;29.67;37.96
52719;BME280;38616;42.140;24.760;2022-08-25T11:12:28;98915.66;;;29.51;38.09
52719;BME280;38616;42.140;24.760;2022-08-25T11:14:58;98913.63;;;29.95;37.19
52719;BME280;38616;42.140;24.760;2022-08-25T11:18:00;98913.63;;;30.15;36.76
52719;BME280;38616;42.140;24.760;2022-08-25T11:20:20;98910.81;;;29.95;38.18
52719;BME280;38616;42.140;24.760;2022-08-25T11:23:07;98926.50;;;29.69;38.14
52719;BME280;38616;42.140;24.760;2022-08-25T11:25:36;98923.34;;;29.67;38.26
52719;BME280;38616;42.140;24.760;2022-08-25T11:28:09;98910.09;;;29.91;37.87
52719;BME280;38616;42.140;24.760;2022-08-25T11:30:37;98897.34;;;30.10;37.82
52719;BME280;38616;42.140;24.760;2022-08-25T11:33:04;98905.31;;;30.12;37.60
52719;BME280;38616;42.140;24.760;2022-08-25T11:35:48;98910.03;;;30.35;37.62
52719;BME280;38616;42.140;24.760;2022-08-25T11:41:08;98909.66;;;30.53;37.45
52719;BME280;38616;42.140;24.760;2022-08-25T11:47:08;98899.78;;;31.02;37.31
52719;BME280;38616;42.140;24.760;2022-08-25T12:00:52;98889.97;;;30.93;35.21
52719;BME280;38616;42.140;24.760;2022-08-25T12:06:28;98883.81;;;30.99;35.60
52719;BME280;38616;42.140;24.760;2022-08-25T12:24:43;98884.72;;;30.22;36.06
52719;BME280;38616;42.140;24.760;2022-08-25T12:38:48;98876.22;;;30.83;34.79
52719;BME280;38616;42.140;24.760;2022-08-25T12:41:17;98868.47;;;31.03;34.40
52719;BME280;38616;42.140;24.760;2022-08-25T12:43:47;98863.41;;;30.98;34.33
52719;BME280;38616;42.140;24.760;2022-08-25T12:56:59;98853.41;;;30.97;35.27
52719;BME280;38616;42.140;24.760;2022-08-25T13:12:49;98855.44;;;30.80;35.63
52719;BME280;38616;42.140;24.760;2022-08-25T13:17:50;98854.81;;;30.72;35.52
52719;BME280;38616;42.140;24.760;2022-08-25T13:20:23;98859.22;;;30.73;35.35
52719;BME280;38616;42.140;24.760;2022-08-25T13:22:51;98864.34;;;30.38;35.11
52719;BME280;38616;42.140;24.760;2022-08-25T13:25:20;98852.28;;;30.41;35.46
52719;BME280;38616;42.140;24.760;2022-08-25T13:27:52;98855.03;;;30.25;35.68
52719;BME280;38616;42.140;24.760;2022-08-25T13:30:39;98853.16;;;30.38;35.42
52719;BME280;38616;42.140;24.760;2022-08-25T13:33:19;98849.94;;;30.56;35.65
52719;BME280;38616;42.140;24.760;2022-08-25T13:35:53;98859.16;;;30.57;35.77
52719;BME280;38616;42.140;24.760;2022-08-25T13:38:38;98890.06;;;29.72;39.95
52719;BME280;38616;42.140;24.760;2022-08-25T13:41:06;98881.59;;;28.81;42.98
52719;BME280;38616;42.140;24.760;2022-08-25T13:43:32;98882.44;;;28.46;44.38
52719;BME280;38616;42.140;24.760;2022-08-25T13:45:59;98890.13;;;28.04;44.95
52719;BME280;38616;42.140;24.760;2022-08-25T13:48:36;98869.72;;;28.11;45.37
52719;BME280;38616;42.140;24.760;2022-08-25T13:51:15;98873.72;;;28.13;45.39
52719;BME280;38616;42.140;24.760;2022-08-25T13:53:48;98878.53;;;28.06;46.26
52719;BME280;38616;42.140;24.760;2022-08-25T13:56:22;98862.47;;;28.17;46.37
52719;BME280;38616;42.140;24.760;2022-08-25T13:58:48;98862.47;;;28.17;46.41
52719;BME280;38616;42.140;24.760;2022-08-25T14:01:17;98856.91;;;28.17;45.91
52719;BME280;38616;42.140;24.760;2022-08-25T14:03:45;98866.47;;;28.16;45.79
52719;BME280;38616;42.140;24.760;2022-08-25T14:08:46;98858.09;;;28.47;45.69
52719;BME280;38616;42.140;24.760;2022-08-25T14:11:24;98848.78;;;28.85;44.79
52719;BME280;38616;42.140;24.760;2022-08-25T14:16:48;98856.31;;;28.88;43.96
52719;BME280;38616;42.140;24.760;2022-08-25T14:19:17;98851.00;;;28.97;44.27
52719;BME280;38616;42.140;24.760;2022-08-25T14:21:44;98856.34;;;29.12;43.51
52719;BME280;38616;42.140;24.760;2022-08-25T14:24:14;98846.97;;;28.98;43.97
52719;BME280;38616;42.140;24.760;2022-08-25T14:26:41;98859.81;;;29.19;43.66
52719;BME280;38616;42.140;24.760;2022-08-25T14:29:07;98855.44;;;29.18;44.19
52719;BME280;38616;42.140;24.760;2022-08-25T14:31:35;98848.44;;;29.07;43.44
52719;BME280;38616;42.140;24.760;2022-08-25T14:34:15;98851.22;;;29.30;42.67
52719;BME280;38616;42.140;24.760;2022-08-25T14:36:42;98848.31;;;29.14;43.24
52719;BME280;38616;42.140;24.760;2022-08-25T14:39:09;98843.38;;;29.22;42.74
52719;BME280;38616;42.140;24.760;2022-08-25T14:41:37;98851.97;;;29.11;42.98
52719;BME280;38616;42.140;24.760;2022-08-25T14:44:04;98848.72;;;29.36;42.37
52719;BME280;38616;42.140;24.760;2022-08-25T14:46:31;98849.59;;;29.33;42.03
52719;BME280;38616;42.140;24.760;2022-08-25T14:49:00;98846.97;;;29.46;42.60
52719;BME280;38616;42.140;24.760;2022-08-25T14:51:27;98852.78;;;29.31;43.19
52719;BME280;38616;42.140;24.760;2022-08-25T14:53:55;98851.66;;;29.53;42.76
52719;BME280;38616;42.140;24.760;2022-08-25T14:56:22;98850.22;;;29.44;42.30
52719;BME280;38616;42.140;24.760;2022-08-25T14:58:48;98844.50;;;29.52;41.71
52719;BME280;38616;42.140;24.760;2022-08-25T15:01:15;98853.28;;;29.50;42.08
52719;BME280;38616;42.140;24.760;2022-08-25T15:03:41;98843.63;;;29.55;42.13
52719;BME280;38616;42.140;24.760;2022-08-25T15:06:10;98848.16;;;29.48;41.81